Terminal Aerodrome Forecast
Issued by NWS

Home | Current Version | Previous Version | Text Only | Print | Product List | Glossary On
Versions: 1 2 3 4 5 6 7 8 9 10 11 12 13 14 15 16
000
FTUS42 KRAH 180540
TAFRWI
TAF
KRWI 180540Z 1806/1906 04007KT P6SM SCT015 BKN250
     FM180900 03007KT P6SM BKN008 BKN250
     FM181300 03009KT P6SM FEW030 BKN200
      AMD NOT SKED=

USA.gov is the U.S. government's official web portal to all federal, state and local government web resources and services.